createdAt,value
2023-10-18T00:01:05.850Z,3.81
2023-10-18T00:03:37.750Z,3.81
2023-10-18T00:06:16.898Z,3.80
2023-10-18T00:08:47.839Z,3.78
2023-10-18T00:11:19.151Z,3.76
2023-10-18T00:13:54.088Z,3.76
2023-10-18T00:16:24.980Z,3.76
2023-10-18T00:18:55.707Z,3.75
2023-10-18T00:21:26.420Z,3.76
2023-10-18T00:23:57.124Z,3.77
2023-10-18T00:26:27.987Z,3.76
2023-10-18T00:28:58.640Z,3.75
2023-10-18T00:31:29.352Z,3.73
2023-10-18T00:34:00.159Z,3.72
2023-10-18T00:36:31.663Z,3.68
2023-10-18T00:39:15.762Z,3.64
2023-10-18T00:41:46.409Z,3.61
2023-10-18T00:44:17.247Z,3.57
2023-10-18T00:46:48.286Z,3.57
2023-10-18T00:49:20.188Z,3.55
2023-10-18T00:51:51.754Z,3.55
2023-10-18T00:54:22.881Z,3.54
2023-10-18T00:56:53.733Z,3.54
2023-10-18T00:59:27.786Z,3.52
2023-10-18T01:01:59.832Z,3.52
2023-10-18T01:04:32.293Z,3.52
2023-10-18T01:07:12.748Z,3.51
2023-10-18T01:09:49.101Z,3.51
2023-10-18T01:12:20.330Z,3.51
2023-10-18T01:14:51.077Z,3.51
2023-10-18T01:17:22.503Z,3.49
2023-10-18T01:19:54.376Z,3.48
2023-10-18T01:22:25.285Z,3.45
2023-10-18T01:24:55.967Z,3.41
2023-10-18T01:27:26.540Z,3.37
2023-10-18T01:29:57.212Z,3.35
2023-10-18T01:32:29.904Z,3.33
2023-10-18T01:35:02.094Z,3.32
2023-10-18T01:37:33.170Z,3.32
2023-10-18T01:40:21.561Z,3.32
2023-10-18T01:42:57.404Z,3.31
2023-10-18T01:45:31.459Z,3.27
2023-10-18T01:48:05.648Z,3.22
2023-10-18T01:50:36.611Z,3.20
2023-10-18T01:53:16.907Z,3.18
2023-10-18T01:55:53.019Z,3.15
2023-10-18T01:58:25.798Z,3.14
2023-10-18T02:00:58.440Z,3.13
2023-10-18T02:03:30.220Z,3.07
2023-10-18T02:06:00.929Z,2.99
2023-10-18T02:08:31.457Z,2.93
2023-10-18T02:11:03.276Z,2.86
2023-10-18T02:13:33.867Z,2.79
2023-10-18T02:16:07.404Z,2.74
2023-10-18T02:18:38.511Z,2.73
2023-10-18T02:21:09.756Z,2.75
2023-10-18T02:23:40.448Z,2.81
2023-10-18T02:26:28.735Z,2.87
2023-10-18T02:29:00.535Z,2.92
2023-10-18T02:31:31.775Z,2.94
2023-10-18T02:34:15.159Z,2.94
2023-10-18T02:36:54.311Z,2.92
2023-10-18T02:39:29.546Z,2.90
2023-10-18T02:42:01.022Z,2.86
2023-10-18T02:44:31.548Z,2.83
2023-10-18T02:47:11.582Z,2.81
2023-10-18T02:49:42.181Z,2.81
2023-10-18T02:52:18.898Z,2.81
2023-10-18T02:54:52.653Z,2.79
2023-10-18T02:57:25.371Z,2.77
2023-10-18T02:59:58.063Z,2.76
2023-10-18T03:02:28.656Z,2.73
2023-10-18T03:05:00.154Z,2.72
2023-10-18T03:07:31.517Z,2.71
2023-10-18T03:10:12.614Z,2.67
2023-10-18T03:12:45.989Z,2.64
2023-10-18T03:15:19.462Z,2.63
2023-10-18T03:17:51.102Z,2.64
2023-10-18T03:20:24.106Z,2.62
2023-10-18T03:22:56.757Z,2.66
2023-10-18T03:25:29.055Z,2.66
2023-10-18T03:28:05.177Z,2.67
2023-10-18T03:30:47.951Z,2.69
2023-10-18T03:33:20.769Z,2.69
2023-10-18T03:36:20.982Z,2.69
2023-10-18T03:38:56.240Z,2.70
2023-10-18T03:41:27.433Z,2.69
2023-10-18T03:44:04.816Z,2.68
2023-10-18T03:46:48.632Z,2.65
2023-10-18T03:49:32.303Z,2.62
2023-10-18T03:52:17.930Z,2.58
2023-10-18T03:55:05.846Z,2.56
2023-10-18T03:57:40.379Z,2.56
2023-10-18T04:00:27.441Z,2.54
2023-10-18T04:03:00.573Z,2.55
2023-10-18T04:05:39.295Z,2.54
2023-10-18T04:08:14.361Z,2.56
2023-10-18T04:10:45.375Z,2.59
2023-10-18T04:13:16.331Z,2.62
2023-10-18T04:15:48.050Z,2.63
2023-10-18T04:18:27.503Z,2.65
2023-10-18T04:21:00.867Z,2.69
2023-10-18T04:23:31.422Z,2.70
2023-10-18T04:26:04.900Z,2.69
2023-10-18T04:28:38.790Z,2.70
2023-10-18T04:31:13.102Z,2.72
2023-10-18T04:33:44.911Z,2.73
2023-10-18T04:36:17.745Z,2.74
2023-10-18T04:38:49.176Z,2.75
2023-10-18T04:41:29.508Z,2.75
2023-10-18T04:44:06.412Z,2.75
2023-10-18T04:46:38.640Z,2.73
2023-10-18T04:49:24.461Z,2.74
2023-10-18T04:51:57.521Z,2.73
2023-10-18T04:54:38.503Z,2.75
2023-10-18T04:57:12.157Z,2.77
2023-10-18T04:59:47.645Z,2.77
2023-10-18T05:02:27.520Z,2.79
2023-10-18T05:04:58.938Z,2.82
2023-10-18T05:07:43.190Z,2.84
2023-10-18T05:10:18.032Z,2.83
2023-10-18T05:13:02.815Z,2.84
2023-10-18T05:15:34.527Z,2.81
2023-10-18T05:18:07.263Z,2.77
2023-10-18T05:20:47.794Z,2.75
2023-10-18T05:23:23.304Z,2.69
2023-10-18T05:26:10.032Z,2.60
2023-10-18T05:28:50.719Z,2.51
2023-10-18T05:31:39.428Z,2.47
2023-10-18T05:34:19.951Z,2.45
2023-10-18T05:37:15.139Z,2.44
2023-10-18T05:40:11.837Z,2.42
2023-10-18T05:42:47.304Z,2.45
2023-10-18T05:45:18.252Z,2.44
2023-10-18T05:47:55.381Z,2.41
2023-10-18T05:50:26.745Z,2.40
2023-10-18T05:53:00.169Z,2.39
2023-10-18T05:55:32.015Z,2.39
2023-10-18T05:58:06.087Z,2.39
2023-10-18T06:00:37.459Z,2.41
2023-10-18T06:03:10.963Z,2.46
2023-10-18T06:05:43.126Z,2.52
2023-10-18T06:08:15.363Z,2.58
2023-10-18T06:10:50.524Z,2.68
2023-10-18T06:13:23.378Z,2.76
2023-10-18T06:15:54.461Z,2.86
2023-10-18T06:18:32.158Z,2.91
2023-10-18T06:21:08.830Z,2.97
2023-10-18T06:23:39.502Z,3.01
2023-10-18T06:26:27.335Z,3.07
2023-10-18T06:29:01.695Z,3.10
2023-10-18T06:31:41.309Z,3.12
2023-10-18T06:34:16.970Z,3.21
2023-10-18T06:36:48.912Z,3.30
2023-10-18T06:39:29.109Z,3.36
2023-10-18T06:42:00.180Z,3.43
2023-10-18T06:44:31.794Z,3.48
2023-10-18T06:47:07.431Z,3.52
2023-10-18T06:49:38.157Z,3.58
2023-10-18T06:52:10.325Z,3.62
2023-10-18T06:54:41.336Z,3.65
2023-10-18T06:57:17.600Z,3.70
2023-10-18T06:59:51.357Z,3.76
2023-10-18T07:02:28.532Z,3.83
2023-10-18T07:05:01.937Z,3.93
2023-10-18T07:07:34.417Z,4.02
2023-10-18T07:10:07.008Z,4.12
2023-10-18T07:12:48.938Z,4.24
2023-10-18T07:15:24.325Z,4.34
2023-10-18T07:17:56.615Z,4.44
2023-10-18T07:20:33.735Z,4.54
2023-10-18T07:23:06.342Z,4.62
2023-10-18T07:25:38.786Z,4.67
2023-10-18T07:28:10.852Z,4.73
2023-10-18T07:30:46.014Z,4.81
2023-10-18T07:33:16.829Z,4.87
2023-10-18T07:35:47.514Z,4.96
2023-10-18T07:38:26.899Z,5.01
2023-10-18T07:41:01.417Z,5.09
2023-10-18T07:43:33.754Z,5.14
2023-10-18T07:46:10.828Z,5.22
2023-10-18T07:48:47.770Z,5.30
2023-10-18T07:51:35.727Z,5.38
2023-10-18T07:54:06.757Z,5.51
2023-10-18T07:56:41.862Z,5.65
2023-10-18T07:59:31.764Z,5.80
2023-10-18T08:02:11.307Z,5.92
2023-10-18T08:04:44.886Z,6.05
2023-10-18T08:07:22.098Z,6.19
2023-10-18T08:09:55.318Z,6.35
2023-10-18T08:12:34.251Z,6.51
2023-10-18T08:15:14.906Z,6.66
2023-10-18T08:17:46.211Z,6.80
2023-10-18T08:20:40.050Z,6.92
2023-10-18T08:23:35.720Z,7.05
2023-10-18T08:26:06.545Z,7.17
2023-10-18T08:28:42.852Z,7.30
2023-10-18T08:31:33.655Z,7.42
2023-10-18T08:34:07.436Z,7.56
2023-10-18T08:36:39.706Z,7.68
2023-10-18T08:39:10.448Z,7.77
2023-10-18T08:41:53.787Z,7.85
2023-10-18T08:44:26.300Z,7.99
2023-10-18T08:47:05.452Z,8.09
2023-10-18T08:49:45.158Z,8.24
2023-10-18T08:52:21.621Z,8.38
2023-10-18T08:54:53.923Z,8.45
2023-10-18T08:57:35.746Z,8.55
2023-10-18T09:00:40.211Z,8.67
2023-10-18T09:03:11.776Z,8.78
2023-10-18T09:05:42.837Z,8.86
2023-10-18T09:08:20.483Z,9.00
2023-10-18T09:10:55.859Z,9.10
2023-10-18T09:13:38.745Z,9.19
2023-10-18T09:16:13.732Z,9.29
2023-10-18T09:18:44.426Z,9.42
2023-10-18T09:21:20.128Z,9.54
2023-10-18T09:24:00.482Z,9.63
2023-10-18T09:26:41.821Z,9.73
2023-10-18T09:29:12.992Z,9.83
2023-10-18T09:31:54.243Z,9.89
2023-10-18T09:34:35.049Z,9.95
2023-10-18T09:37:12.634Z,10.04
2023-10-18T09:39:45.404Z,10.13
2023-10-18T09:42:16.891Z,10.20
2023-10-18T09:44:48.845Z,10.27
2023-10-18T09:47:24.998Z,10.32
2023-10-18T09:49:59.030Z,10.37
2023-10-18T09:52:33.428Z,10.39
2023-10-18T09:55:07.727Z,10.45
2023-10-18T09:57:41.880Z,10.53
2023-10-18T10:00:14.685Z,10.59
2023-10-18T10:02:53.955Z,10.62
2023-10-18T10:05:26.762Z,10.65
2023-10-18T10:08:01.621Z,10.70
2023-10-18T10:10:45.871Z,10.80
2023-10-18T10:13:20.911Z,10.88
2023-10-18T10:15:57.297Z,10.90
2023-10-18T10:18:35.087Z,10.92
2023-10-18T10:21:07.448Z,11.00
2023-10-18T10:23:39.388Z,11.09
2023-10-18T10:26:28.858Z,11.14
2023-10-18T10:29:27.056Z,11.18
2023-10-18T10:32:06.254Z,11.27
2023-10-18T10:34:39.258Z,11.35
2023-10-18T10:37:19.940Z,11.40
2023-10-18T10:39:51.960Z,11.43
2023-10-18T10:42:44.459Z,11.53
2023-10-18T10:45:36.351Z,11.62
2023-10-18T10:48:33.094Z,11.72
2023-10-18T10:51:13.326Z,11.79
2023-10-18T10:53:47.577Z,11.88
2023-10-18T10:56:21.026Z,11.94
2023-10-18T10:59:04.283Z,11.95
2023-10-18T11:02:12.211Z,11.99
2023-10-18T11:04:59.260Z,12.04
2023-10-18T11:07:30.615Z,12.09
2023-10-18T11:10:07.836Z,12.17
2023-10-18T11:12:39.136Z,12.17
2023-10-18T11:15:17.434Z,12.19
2023-10-18T11:17:50.930Z,12.22
2023-10-18T11:20:31.175Z,12.23
2023-10-18T11:23:02.084Z,12.25
2023-10-18T11:25:34.941Z,12.26
2023-10-18T11:28:29.824Z,12.27
2023-10-18T11:31:03.718Z,12.28
2023-10-18T11:33:48.107Z,12.32
2023-10-18T11:36:20.598Z,12.35
2023-10-18T11:39:20.015Z,12.42
2023-10-18T11:41:54.599Z,12.48
2023-10-18T11:44:34.220Z,12.49
2023-10-18T11:47:13.262Z,12.49
2023-10-18T11:49:45.047Z,12.53
2023-10-18T11:52:23.140Z,12.54
2023-10-18T11:54:54.498Z,12.56
2023-10-18T11:57:31.260Z,12.59
2023-10-18T12:00:16.266Z,12.66
2023-10-18T12:02:47.282Z,12.74
2023-10-18T12:05:24.669Z,12.81
2023-10-18T12:07:56.101Z,12.87
2023-10-18T12:10:36.027Z,12.90
2023-10-18T12:13:13.181Z,12.88
2023-10-18T12:15:44.026Z,12.85
2023-10-18T12:18:15.318Z,12.79
2023-10-18T12:20:45.995Z,12.79
2023-10-18T12:23:19.876Z,12.82
2023-10-18T12:25:51.538Z,12.83
2023-10-18T12:28:29.144Z,12.86
2023-10-18T12:31:02.510Z,12.83
2023-10-18T12:33:35.931Z,12.75
2023-10-18T12:36:09.044Z,12.70
2023-10-18T12:38:40.397Z,12.69
2023-10-18T12:41:19.681Z,12.74
2023-10-18T12:43:53.071Z,12.78
2023-10-18T12:46:24.135Z,12.80
2023-10-18T12:48:55.251Z,12.81
2023-10-18T12:51:32.094Z,12.80
2023-10-18T12:54:05.527Z,12.79
2023-10-18T12:56:38.925Z,12.82
2023-10-18T12:59:25.838Z,12.81
2023-10-18T13:02:01.322Z,12.76
2023-10-18T13:04:31.895Z,12.72
2023-10-18T13:07:19.746Z,12.68
2023-10-18T13:09:50.553Z,12.60
2023-10-18T13:12:25.221Z,12.57
2023-10-18T13:14:58.461Z,12.56
2023-10-18T13:17:33.506Z,12.55
2023-10-18T13:20:07.407Z,12.57
2023-10-18T13:22:38.024Z,12.61
2023-10-18T13:25:10.469Z,12.64
2023-10-18T13:27:43.389Z,12.67
2023-10-18T13:30:33.140Z,12.69
2023-10-18T13:33:12.408Z,12.72
2023-10-18T13:35:45.360Z,12.70
2023-10-18T13:38:17.028Z,12.66
2023-10-18T13:40:48.069Z,12.60
2023-10-18T13:43:20.700Z,12.54
2023-10-18T13:46:01.487Z,12.53
2023-10-18T13:48:32.283Z,12.54
2023-10-18T13:51:03.590Z,12.54
2023-10-18T13:53:34.593Z,12.56
2023-10-18T13:56:05.705Z,12.58
2023-10-18T13:58:36.955Z,12.59
2023-10-18T14:01:08.159Z,12.57
2023-10-18T14:03:43.786Z,12.55
2023-10-18T14:06:15.922Z,12.53
2023-10-18T14:08:48.980Z,12.50
2023-10-18T14:11:20.738Z,12.47
2023-10-18T14:13:56.263Z,12.43
2023-10-18T14:16:27.139Z,12.41
2023-10-18T14:18:58.206Z,12.38
2023-10-18T14:21:31.005Z,12.36
2023-10-18T14:24:02.269Z,12.34
2023-10-18T14:26:34.638Z,12.36
2023-10-18T14:29:09.762Z,12.35
2023-10-18T14:31:40.928Z,12.32
2023-10-18T14:34:11.888Z,12.30
2023-10-18T14:36:43.293Z,12.33
2023-10-18T14:39:15.386Z,12.31
2023-10-18T14:41:46.416Z,12.29
2023-10-18T14:44:17.178Z,12.27
2023-10-18T14:46:47.853Z,12.27
2023-10-18T14:49:20.279Z,12.23
2023-10-18T14:51:50.915Z,12.19
2023-10-18T14:54:21.584Z,12.11
2023-10-18T14:56:53.170Z,12.05
2023-10-18T14:59:24.982Z,11.96
2023-10-18T15:01:56.325Z,11.90
2023-10-18T15:04:27.419Z,11.81
2023-10-18T15:06:58.066Z,11.72
2023-10-18T15:09:29.501Z,11.65
2023-10-18T15:12:00.385Z,11.57
2023-10-18T15:14:34.046Z,11.49
2023-10-18T15:17:05.086Z,11.41
2023-10-18T15:19:35.987Z,11.35
2023-10-18T15:22:06.752Z,11.30
2023-10-18T15:24:41.692Z,11.23
2023-10-18T15:27:16.585Z,11.15
2023-10-18T15:29:47.972Z,11.07
2023-10-18T15:32:18.598Z,11.00
2023-10-18T15:34:49.370Z,10.91
2023-10-18T15:37:20.497Z,10.83
2023-10-18T15:39:51.105Z,10.74
2023-10-18T15:42:24.580Z,10.67
2023-10-18T15:44:57.351Z,10.59
2023-10-18T15:47:28.198Z,10.50
2023-10-18T15:49:59.785Z,10.42
2023-10-18T15:52:31.534Z,10.36
2023-10-18T15:55:02.102Z,10.30
2023-10-18T15:57:32.769Z,10.23
2023-10-18T16:00:08.936Z,10.17
2023-10-18T16:02:39.776Z,10.09
2023-10-18T16:05:11.748Z,10.02
2023-10-18T16:07:42.465Z,9.94
2023-10-18T16:10:14.032Z,9.87
2023-10-18T16:12:46.587Z,9.80
2023-10-18T16:15:21.544Z,9.73
2023-10-18T16:17:52.639Z,9.67
2023-10-18T16:20:25.438Z,9.60
2023-10-18T16:22:57.327Z,9.54
2023-10-18T16:25:27.997Z,9.48
2023-10-18T16:27:58.549Z,9.42
2023-10-18T16:30:30.217Z,9.36
2023-10-18T16:33:01.497Z,9.32
2023-10-18T16:35:32.873Z,9.27
2023-10-18T16:38:05.335Z,9.23
2023-10-18T16:40:36.379Z,9.19
2023-10-18T16:43:07.411Z,9.14
2023-10-18T16:45:41.541Z,9.11
2023-10-18T16:48:12.570Z,9.08
2023-10-18T16:50:43.958Z,9.05
2023-10-18T16:53:14.886Z,9.01
2023-10-18T16:55:53.680Z,8.99
2023-10-18T16:58:24.273Z,8.96
2023-10-18T17:01:01.076Z,8.94
2023-10-18T17:03:33.379Z,8.92
2023-10-18T17:06:07.284Z,8.90
2023-10-18T17:08:38.406Z,8.87
2023-10-18T17:11:11.399Z,8.85
2023-10-18T17:13:44.250Z,8.83
2023-10-18T17:16:16.072Z,8.81
2023-10-18T17:18:46.876Z,8.78
2023-10-18T17:21:20.677Z,8.75
2023-10-18T17:23:52.431Z,8.71
2023-10-18T17:26:23.118Z,8.69
2023-10-18T17:28:54.239Z,8.66
2023-10-18T17:31:25.212Z,8.64
2023-10-18T17:33:56.098Z,8.61
2023-10-18T17:36:27.525Z,8.58
2023-10-18T17:38:58.957Z,8.56
2023-10-18T17:41:29.752Z,8.53
2023-10-18T17:44:00.405Z,8.51
2023-10-18T17:46:31.254Z,8.48
2023-10-18T17:49:02.090Z,8.45
2023-10-18T17:51:32.875Z,8.42
2023-10-18T17:54:04.530Z,8.39
2023-10-18T17:56:35.192Z,8.37
2023-10-18T17:59:10.882Z,8.34
2023-10-18T18:01:42.538Z,8.30
2023-10-18T18:04:14.402Z,8.28
2023-10-18T18:06:48.007Z,8.25
2023-10-18T18:09:23.900Z,8.22
2023-10-18T18:11:54.997Z,8.18
2023-10-18T18:14:25.982Z,8.17
2023-10-18T18:16:56.764Z,8.13
2023-10-18T18:19:27.385Z,8.11
2023-10-18T18:21:58.042Z,8.09
2023-10-18T18:24:28.800Z,8.08
2023-10-18T18:26:59.467Z,8.06
2023-10-18T18:29:30.106Z,8.02
2023-10-18T18:32:00.866Z,8.00
2023-10-18T18:34:32.109Z,7.99
2023-10-18T18:37:03.017Z,7.98
2023-10-18T18:39:35.825Z,7.96
2023-10-18T18:42:08.021Z,7.95
2023-10-18T18:44:39.980Z,7.94
2023-10-18T18:47:10.840Z,7.94
2023-10-18T18:49:42.245Z,7.94
2023-10-18T18:52:12.956Z,7.94
2023-10-18T18:54:43.849Z,7.93
2023-10-18T18:57:14.443Z,7.93
2023-10-18T18:59:45.108Z,7.91
2023-10-18T19:02:15.767Z,7.90
2023-10-18T19:04:46.630Z,7.89
2023-10-18T19:07:17.541Z,7.89
2023-10-18T19:09:48.271Z,7.88
2023-10-18T19:12:22.346Z,7.87
2023-10-18T19:14:54.208Z,7.85
2023-10-18T19:17:24.875Z,7.84
2023-10-18T19:19:55.482Z,7.82
2023-10-18T19:22:26.085Z,7.81
2023-10-18T19:24:56.660Z,7.79
2023-10-18T19:27:27.262Z,7.78
2023-10-18T19:29:57.838Z,7.77
2023-10-18T19:32:28.402Z,7.76
2023-10-18T19:34:59.713Z,7.75
2023-10-18T19:37:32.296Z,7.74
2023-10-18T19:40:05.977Z,7.75
2023-10-18T19:42:37.008Z,7.74
2023-10-18T19:45:10.672Z,7.73
2023-10-18T19:47:41.827Z,7.72
2023-10-18T19:50:13.347Z,7.72
2023-10-18T19:52:44.781Z,7.73
2023-10-18T19:55:16.673Z,7.73
2023-10-18T19:57:47.181Z,7.73
2023-10-18T20:00:19.289Z,7.74
2023-10-18T20:02:50.134Z,7.73
2023-10-18T20:05:21.265Z,7.73
2023-10-18T20:07:52.556Z,7.74
2023-10-18T20:10:23.175Z,7.74
2023-10-18T20:12:53.996Z,7.74
2023-10-18T20:15:25.343Z,7.76
2023-10-18T20:17:57.240Z,7.76
2023-10-18T20:20:28.023Z,7.76
2023-10-18T20:23:01.168Z,7.77
2023-10-18T20:25:31.806Z,7.77
2023-10-18T20:28:02.426Z,7.77
2023-10-18T20:30:33.387Z,7.78
2023-10-18T20:33:04.312Z,7.80
2023-10-18T20:35:35.011Z,7.82
2023-10-18T20:38:05.841Z,7.84
2023-10-18T20:40:37.804Z,7.85
2023-10-18T20:43:08.750Z,7.86
2023-10-18T20:45:39.877Z,7.87
2023-10-18T20:48:12.368Z,7.86
2023-10-18T20:50:43.970Z,7.87
2023-10-18T20:53:16.971Z,7.88
2023-10-18T20:55:48.342Z,7.89
2023-10-18T20:58:23.584Z,7.90
2023-10-18T21:00:54.229Z,7.90
2023-10-18T21:03:25.742Z,7.91
2023-10-18T21:06:01.138Z,7.91
2023-10-18T21:08:34.691Z,7.90
2023-10-18T21:11:10.217Z,7.89
2023-10-18T21:13:41.706Z,7.88
2023-10-18T21:16:13.967Z,7.88
2023-10-18T21:18:45.997Z,7.87
2023-10-18T21:21:17.070Z,7.87
2023-10-18T21:23:47.869Z,7.86
2023-10-18T21:26:18.881Z,7.86
2023-10-18T21:28:50.703Z,7.83
2023-10-18T21:31:21.533Z,7.81
2023-10-18T21:33:53.005Z,7.78
2023-10-18T21:36:23.685Z,7.77
2023-10-18T21:38:54.919Z,7.75
2023-10-18T21:41:26.774Z,7.73
2023-10-18T21:43:58.313Z,7.71
2023-10-18T21:46:29.059Z,7.71
2023-10-18T21:49:00.092Z,7.71
2023-10-18T21:51:30.792Z,7.71
2023-10-18T21:54:01.360Z,7.69
2023-10-18T21:56:34.837Z,7.66
2023-10-18T21:59:06.839Z,7.65
2023-10-18T22:01:45.094Z,7.65
2023-10-18T22:04:16.939Z,7.64
2023-10-18T22:06:47.915Z,7.66
2023-10-18T22:09:32.712Z,7.67
2023-10-18T22:12:04.888Z,7.68
2023-10-18T22:14:37.206Z,7.71
2023-10-18T22:17:15.718Z,7.73
2023-10-18T22:19:52.338Z,7.75
2023-10-18T22:22:23.574Z,7.78
2023-10-18T22:24:54.324Z,7.80
2023-10-18T22:27:26.410Z,7.82
2023-10-18T22:29:57.761Z,7.86
2023-10-18T22:32:29.938Z,7.87
2023-10-18T22:35:01.061Z,7.90
2023-10-18T22:37:31.793Z,7.93
2023-10-18T22:40:06.198Z,7.94
2023-10-18T22:42:41.104Z,7.97
2023-10-18T22:45:25.921Z,7.97
2023-10-18T22:48:00.417Z,7.97
2023-10-18T22:50:39.240Z,8.00
2023-10-18T22:53:19.300Z,8.02
2023-10-18T22:55:57.847Z,8.04
2023-10-18T22:58:31.102Z,8.05
2023-10-18T23:01:04.358Z,8.07
2023-10-18T23:03:35.157Z,8.09
2023-10-18T23:06:11.574Z,8.11
2023-10-18T23:08:42.465Z,8.11
2023-10-18T23:11:34.178Z,8.12
2023-10-18T23:14:10.347Z,8.13
2023-10-18T23:16:58.868Z,8.12
2023-10-18T23:19:37.386Z,8.13
2023-10-18T23:22:33.043Z,8.14
2023-10-18T23:25:17.746Z,8.14
2023-10-18T23:28:06.331Z,8.14
2023-10-18T23:30:40.902Z,8.14
2023-10-18T23:33:26.178Z,8.13
2023-10-18T23:35:58.150Z,8.11
2023-10-18T23:38:38.088Z,8.10
2023-10-18T23:41:11.200Z,8.09
2023-10-18T23:43:50.542Z,8.09
2023-10-18T23:46:37.881Z,8.08
2023-10-18T23:52:31.864Z,8.09
2023-10-18T23:55:12.494Z,8.05
2023-10-18T23:57:47.842Z,8.03
